createdAt,value
2018-07-20T00:01:35.103Z,35.47
2018-07-20T00:04:03.775Z,34.07
2018-07-20T00:06:32.338Z,32.97
2018-07-20T00:09:00.939Z,33.83
2018-07-20T00:11:29.568Z,33.57
2018-07-20T00:13:58.179Z,33.57
2018-07-20T00:16:26.711Z,33.53
2018-07-20T00:18:55.232Z,32.60
2018-07-20T00:21:23.834Z,32.07
2018-07-20T00:23:52.426Z,30.57
2018-07-20T00:26:20.946Z,29.57
2018-07-20T00:28:49.535Z,30.37
2018-07-20T00:31:18.218Z,31.00
2018-07-20T00:33:46.782Z,29.93
2018-07-20T00:36:15.338Z,27.10
2018-07-20T00:38:43.924Z,27.30
2018-07-20T00:41:12.502Z,27.13
2018-07-20T00:43:41.140Z,28.40
2018-07-20T00:46:09.670Z,25.20
2018-07-20T00:48:38.260Z,27.47
2018-07-20T00:51:07.216Z,25.73
2018-07-20T00:53:36.370Z,25.40
2018-07-20T00:56:04.921Z,25.47
2018-07-20T00:58:33.482Z,24.27
2018-07-20T01:01:02.190Z,25.27
2018-07-20T01:03:30.773Z,24.57
2018-07-20T01:05:59.316Z,26.00
2018-07-20T01:08:28.086Z,25.87
2018-07-20T01:10:56.691Z,25.00
2018-07-20T01:13:25.278Z,26.93
2018-07-20T01:15:53.903Z,31.27
2018-07-20T01:18:22.509Z,31.27
2018-07-20T01:20:51.051Z,29.13
2018-07-20T01:23:19.699Z,30.67
2018-07-20T01:25:48.260Z,28.00
2018-07-20T01:28:16.985Z,29.60
2018-07-20T01:30:45.600Z,26.00
2018-07-20T01:33:14.218Z,26.87
2018-07-20T01:35:42.805Z,27.47
2018-07-20T01:38:11.420Z,27.47
2018-07-20T01:40:39.970Z,27.53
2018-07-20T01:43:09.067Z,27.90
2018-07-20T01:45:37.644Z,27.43
2018-07-20T01:48:06.305Z,26.43
2018-07-20T01:50:34.818Z,30.13
2018-07-20T01:53:03.336Z,27.37
2018-07-20T01:55:31.962Z,26.77
2018-07-20T01:58:00.510Z,28.20
2018-07-20T02:00:29.049Z,27.73
2018-07-20T02:02:57.645Z,28.83
2018-07-20T02:05:26.182Z,28.53
2018-07-20T02:07:54.756Z,29.30
2018-07-20T02:10:23.328Z,28.60
2018-07-20T02:12:51.950Z,31.03
2018-07-20T02:15:20.559Z,29.13
2018-07-20T02:17:49.124Z,28.93
2018-07-20T02:20:17.706Z,28.57
2018-07-20T02:22:46.266Z,29.30
2018-07-20T02:25:14.810Z,29.47
2018-07-20T02:27:43.337Z,31.40
2018-07-20T02:30:11.964Z,29.60
2018-07-20T02:32:40.469Z,28.37
2018-07-20T02:35:09.023Z,31.07
2018-07-20T02:37:37.615Z,30.40
2018-07-20T02:40:06.213Z,30.17
2018-07-20T02:42:34.747Z,28.20
2018-07-20T02:45:03.348Z,27.57
2018-07-20T02:47:31.925Z,28.43
2018-07-20T02:50:00.504Z,28.67
2018-07-20T02:52:29.018Z,28.07
2018-07-20T02:54:57.546Z,28.27
2018-07-20T02:57:26.121Z,27.93
2018-07-20T02:59:54.640Z,27.97
2018-07-20T03:02:23.211Z,27.00
2018-07-20T03:04:51.772Z,31.53
2018-07-20T03:07:20.306Z,28.43
2018-07-20T03:09:48.835Z,29.00
2018-07-20T03:12:17.385Z,28.13
2018-07-20T03:14:45.964Z,28.37
2018-07-20T03:17:14.492Z,30.47
2018-07-20T03:19:43.041Z,29.67
2018-07-20T03:22:11.713Z,32.30
2018-07-20T03:24:40.382Z,29.90
2018-07-20T03:27:09.018Z,28.17
2018-07-20T03:29:37.578Z,32.43
2018-07-20T03:32:06.740Z,27.57
2018-07-20T03:34:35.362Z,27.57
2018-07-20T03:37:03.910Z,29.67
2018-07-20T03:39:32.498Z,24.90
2018-07-20T03:42:01.078Z,27.40
2018-07-20T03:44:29.679Z,26.53
2018-07-20T03:46:58.214Z,26.77
2018-07-20T03:49:26.818Z,28.37
2018-07-20T03:51:55.370Z,25.43
2018-07-20T03:54:23.894Z,24.93
2018-07-20T03:56:52.472Z,25.10
2018-07-20T03:59:21.006Z,23.80
2018-07-20T04:01:49.524Z,25.07
2018-07-20T04:04:18.081Z,25.10
2018-07-20T04:06:46.754Z,24.27
2018-07-20T04:09:15.302Z,26.03
2018-07-20T04:11:43.875Z,25.20
2018-07-20T04:14:12.442Z,23.50
2018-07-20T04:16:40.981Z,23.83
2018-07-20T04:19:09.556Z,23.43
2018-07-20T04:21:38.114Z,24.27
2018-07-20T04:24:06.764Z,26.33
2018-07-20T04:26:35.405Z,25.37
2018-07-20T04:29:04.015Z,23.80
2018-07-20T04:31:32.628Z,22.80
2018-07-20T04:34:01.158Z,29.43
2018-07-20T04:36:29.822Z,29.00
2018-07-20T04:38:58.307Z,28.57
2018-07-20T04:41:26.898Z,33.43
2018-07-20T04:43:55.560Z,33.87
2018-07-20T04:46:24.098Z,33.57
2018-07-20T04:48:52.660Z,29.70
2018-07-20T04:51:21.257Z,32.20
2018-07-20T04:53:49.811Z,33.37
2018-07-20T04:56:18.370Z,35.13
2018-07-20T04:58:47.080Z,36.10
2018-07-20T05:01:15.599Z,38.57
2018-07-20T05:03:44.226Z,37.33
2018-07-20T05:06:12.729Z,37.37
2018-07-20T05:08:41.299Z,43.33
2018-07-20T05:11:09.898Z,41.87
2018-07-20T05:13:38.463Z,41.70
2018-07-20T05:16:07.101Z,40.97
2018-07-20T05:18:35.703Z,40.23
2018-07-20T05:21:04.425Z,43.03
2018-07-20T05:23:33.138Z,40.80
2018-07-20T05:26:01.667Z,36.90
2018-07-20T05:28:30.265Z,43.40
2018-07-20T05:30:58.921Z,37.97
2018-07-20T05:33:27.457Z,41.10
2018-07-20T05:35:56.092Z,41.20
2018-07-20T05:38:24.683Z,46.00
2018-07-20T05:40:53.326Z,38.20
2018-07-20T05:43:21.885Z,41.43
2018-07-20T05:45:50.498Z,42.57
2018-07-20T05:48:19.022Z,44.00
2018-07-20T05:50:47.609Z,43.10
2018-07-20T05:53:16.156Z,47.60
2018-07-20T05:55:44.711Z,43.00
2018-07-20T05:58:13.462Z,38.87
2018-07-20T06:00:42.045Z,39.47
2018-07-20T06:03:10.681Z,41.20
2018-07-20T06:05:39.350Z,38.43
2018-07-20T06:08:07.885Z,37.37
2018-07-20T06:10:36.475Z,36.40
2018-07-20T06:13:05.074Z,36.10
2018-07-20T06:15:33.629Z,36.20
2018-07-20T06:18:02.171Z,37.07
2018-07-20T06:20:30.751Z,37.93
2018-07-20T06:22:59.673Z,35.03
2018-07-20T06:25:28.292Z,35.23
2018-07-20T06:27:56.863Z,33.60
2018-07-20T06:30:25.438Z,32.73
2018-07-20T06:32:53.961Z,33.27
2018-07-20T06:35:22.581Z,36.97
2018-07-20T06:37:51.253Z,31.33
2018-07-20T06:40:19.802Z,30.63
2018-07-20T06:42:48.363Z,32.50
2018-07-20T06:45:16.937Z,29.20
2018-07-20T06:47:45.507Z,27.77
2018-07-20T06:50:16.252Z,28.60
2018-07-20T06:52:45.630Z,27.97
2018-07-20T06:55:14.176Z,27.50
2018-07-20T06:57:42.866Z,26.10
2018-07-20T07:00:11.451Z,26.07
2018-07-20T07:02:40.004Z,24.97
2018-07-20T07:05:09.786Z,27.70
2018-07-20T07:07:38.398Z,25.83
2018-07-20T07:10:07.661Z,25.27
2018-07-20T07:12:36.337Z,25.23
2018-07-20T07:15:05.464Z,26.40
2018-07-20T07:17:34.050Z,25.80
2018-07-20T07:20:02.676Z,25.37
2018-07-20T07:22:31.285Z,24.20
2018-07-20T07:24:59.846Z,23.77
2018-07-20T07:27:28.795Z,24.53
2018-07-20T07:29:57.330Z,23.97
2018-07-20T07:32:25.931Z,23.70
2018-07-20T07:34:54.494Z,24.70
2018-07-20T07:37:23.086Z,24.30
2018-07-20T07:39:51.643Z,24.47
2018-07-20T07:42:20.203Z,24.17
2018-07-20T07:44:48.778Z,25.43
2018-07-20T07:47:17.301Z,26.13
2018-07-20T07:49:45.484Z,25.33
2018-07-20T07:52:14.130Z,25.83
2018-07-20T07:54:42.771Z,25.13
2018-07-20T07:57:11.292Z,25.37
2018-07-20T07:59:39.987Z,25.20
2018-07-20T08:02:08.610Z,26.50
2018-07-20T08:04:37.160Z,25.27
2018-07-20T08:07:05.849Z,25.47
2018-07-20T08:09:34.424Z,26.47
2018-07-20T08:12:03.524Z,28.87
2018-07-20T08:14:32.171Z,29.80
2018-07-20T08:17:00.778Z,31.93
2018-07-20T08:19:29.330Z,30.33
2018-07-20T08:21:57.918Z,29.70
2018-07-20T08:24:26.418Z,30.57
2018-07-20T08:26:54.966Z,30.33
2018-07-20T08:29:24.115Z,29.60
2018-07-20T08:31:52.925Z,29.47
2018-07-20T08:34:21.522Z,30.13
2018-07-20T08:36:50.058Z,30.13
2018-07-20T08:39:18.638Z,33.47
2018-07-20T08:41:47.250Z,30.23
2018-07-20T08:44:15.804Z,29.40
2018-07-20T08:46:44.354Z,28.97
2018-07-20T08:49:12.909Z,27.03
2018-07-20T08:51:41.626Z,27.13
2018-07-20T08:54:10.000Z,26.17
2018-07-20T08:56:38.553Z,28.67
2018-07-20T08:59:07.330Z,26.67
2018-07-20T09:01:35.804Z,26.00
2018-07-20T09:04:04.358Z,26.53
2018-07-20T09:06:32.895Z,25.80
2018-07-20T09:09:01.554Z,27.03
2018-07-20T09:11:30.142Z,27.17
2018-07-20T09:13:58.748Z,26.90
2018-07-20T09:16:27.356Z,25.27
2018-07-20T09:18:55.885Z,26.37
2018-07-20T09:21:24.480Z,25.13
2018-07-20T09:23:53.022Z,29.30
2018-07-20T09:26:21.535Z,27.90
2018-07-20T09:28:50.039Z,26.43
2018-07-20T09:31:18.566Z,25.10
2018-07-20T09:33:47.203Z,25.00
2018-07-20T09:36:15.878Z,24.77
2018-07-20T09:38:44.474Z,24.70
2018-07-20T09:41:13.288Z,24.17
2018-07-20T09:43:41.907Z,24.13
2018-07-20T09:46:10.214Z,22.77
2018-07-20T09:48:38.742Z,21.73
2018-07-20T09:51:07.417Z,21.63
2018-07-20T09:53:35.907Z,23.00
2018-07-20T09:56:04.707Z,22.40
2018-07-20T09:58:33.364Z,21.87
2018-07-20T10:01:03.149Z,20.10
2018-07-20T10:03:31.734Z,21.30
2018-07-20T10:06:00.218Z,20.90
2018-07-20T10:08:28.765Z,18.50
2018-07-20T10:10:57.350Z,18.47
2018-07-20T10:13:25.899Z,18.00
2018-07-20T10:15:54.558Z,18.23
2018-07-20T10:18:23.074Z,20.23
2018-07-20T10:20:51.593Z,18.33
2018-07-20T10:23:20.143Z,18.83
2018-07-20T10:25:48.707Z,25.60
2018-07-20T10:28:17.231Z,21.00
2018-07-20T10:30:45.891Z,18.57
2018-07-20T10:33:14.426Z,17.83
2018-07-20T10:35:42.987Z,18.60
2018-07-20T10:38:11.583Z,18.17
2018-07-20T10:40:39.787Z,17.63
2018-07-20T10:43:08.343Z,17.37
2018-07-20T10:45:36.953Z,17.53
2018-07-20T10:48:05.572Z,16.67
2018-07-20T10:50:34.120Z,16.00
2018-07-20T10:53:02.718Z,16.20
2018-07-20T10:55:31.240Z,14.93
2018-07-20T10:57:59.771Z,15.63
2018-07-20T11:00:28.468Z,15.60
2018-07-20T11:02:57.016Z,16.03
2018-07-20T11:05:25.563Z,18.23
2018-07-20T11:07:54.194Z,15.73
2018-07-20T11:10:22.772Z,17.40
2018-07-20T11:12:51.298Z,22.40
2018-07-20T11:15:19.889Z,22.07
2018-07-20T11:17:48.427Z,17.83
2018-07-20T11:20:17.042Z,16.57
2018-07-20T11:22:45.651Z,15.90
2018-07-20T11:25:14.197Z,14.77
2018-07-20T11:27:42.759Z,18.93
2018-07-20T11:30:11.354Z,17.67
2018-07-20T11:32:40.543Z,17.27
2018-07-20T11:35:09.109Z,23.47
2018-07-20T11:37:37.670Z,21.90
2018-07-20T11:40:06.355Z,20.93
2018-07-20T11:42:34.955Z,22.93
2018-07-20T11:45:03.597Z,21.03
2018-07-20T11:47:32.821Z,19.70
2018-07-20T11:50:01.322Z,18.87
2018-07-20T11:52:29.963Z,21.13
2018-07-20T11:54:58.507Z,16.70
2018-07-20T11:57:27.040Z,14.97
2018-07-20T11:59:55.719Z,21.63
2018-07-20T12:02:24.395Z,19.63
2018-07-20T12:04:53.014Z,18.57
2018-07-20T12:07:21.630Z,17.57
2018-07-20T12:09:50.238Z,17.93
2018-07-20T12:12:18.772Z,17.17
2018-07-20T12:14:47.345Z,19.77
2018-07-20T12:17:16.019Z,18.27
2018-07-20T12:19:44.583Z,17.80
2018-07-20T12:22:13.134Z,19.57
2018-07-20T12:24:41.676Z,18.10
2018-07-20T12:27:10.254Z,16.17
2018-07-20T12:29:38.848Z,16.63
2018-07-20T12:32:07.382Z,14.70
2018-07-20T12:34:36.014Z,13.97
2018-07-20T12:37:04.759Z,12.60
2018-07-20T12:39:33.274Z,10.10
2018-07-20T12:42:01.833Z,9.27
2018-07-20T12:44:30.378Z,9.60
2018-07-20T12:46:58.896Z,9.20
2018-07-20T12:49:27.639Z,9.23
2018-07-20T12:51:56.239Z,9.30
2018-07-20T12:54:24.858Z,9.37
2018-07-20T12:56:53.582Z,10.00
2018-07-20T12:59:22.134Z,10.13
2018-07-20T13:01:50.730Z,9.90
2018-07-20T13:04:19.324Z,11.00
2018-07-20T13:06:47.897Z,10.37
2018-07-20T13:09:16.494Z,9.50
2018-07-20T13:11:45.082Z,9.63
2018-07-20T13:14:13.827Z,10.93
2018-07-20T13:16:42.907Z,11.80
2018-07-20T13:19:11.474Z,10.17
2018-07-20T13:21:40.055Z,10.10
2018-07-20T13:24:08.562Z,9.23
2018-07-20T13:26:37.451Z,11.40
2018-07-20T13:29:06.197Z,10.97
2018-07-20T13:31:34.782Z,10.07
2018-07-20T13:34:03.386Z,9.70
2018-07-20T13:36:31.952Z,11.33
2018-07-20T13:39:00.487Z,10.37
2018-07-20T13:41:29.041Z,9.77
2018-07-20T13:43:57.566Z,9.20
2018-07-20T13:46:26.142Z,8.63
2018-07-20T13:48:54.342Z,8.93
2018-07-20T13:51:22.918Z,8.37
2018-07-20T13:53:51.559Z,8.77
2018-07-20T13:56:20.153Z,8.97
2018-07-20T13:58:48.798Z,9.97
2018-07-20T14:01:17.367Z,8.90
2018-07-20T14:03:45.944Z,9.53
2018-07-20T14:06:14.592Z,9.10
2018-07-20T14:08:43.146Z,8.67
2018-07-20T14:11:11.759Z,8.60
2018-07-20T14:13:40.339Z,9.20
2018-07-20T14:16:08.956Z,9.67
2018-07-20T14:18:37.510Z,9.37
2018-07-20T14:21:06.115Z,9.57
2018-07-20T14:23:34.672Z,8.53
2018-07-20T14:26:03.375Z,8.43
2018-07-20T14:28:31.934Z,9.87
2018-07-20T14:31:00.683Z,9.33
2018-07-20T14:33:29.266Z,8.37
2018-07-20T14:35:57.854Z,9.90
2018-07-20T14:38:26.387Z,8.97
2018-07-20T14:40:55.023Z,8.40
2018-07-20T14:43:23.796Z,7.90
2018-07-20T14:45:52.593Z,6.97
2018-07-20T14:48:21.346Z,9.00
2018-07-20T14:50:50.395Z,8.07
2018-07-20T14:53:19.070Z,7.23
2018-07-20T14:55:48.639Z,7.83
2018-07-20T14:58:17.284Z,7.57
2018-07-20T15:00:46.093Z,7.87
2018-07-20T15:03:14.789Z,8.13
2018-07-20T15:05:43.319Z,8.07
2018-07-20T15:08:11.909Z,8.10
2018-07-20T15:10:40.523Z,8.27
2018-07-20T15:13:09.158Z,8.53
2018-07-20T15:15:37.863Z,8.17
2018-07-20T15:18:06.504Z,7.70
2018-07-20T15:20:35.083Z,8.47
2018-07-20T15:23:03.690Z,10.80
2018-07-20T15:25:31.920Z,8.00
2018-07-20T15:28:00.567Z,8.57
2018-07-20T15:30:29.209Z,8.27
2018-07-20T15:32:57.916Z,8.60
2018-07-20T15:35:26.556Z,8.23
2018-07-20T15:37:55.219Z,8.73
2018-07-20T15:40:23.832Z,8.27
2018-07-20T15:42:52.409Z,12.20
2018-07-20T15:45:20.974Z,8.40
2018-07-20T15:47:49.602Z,8.87
2018-07-20T15:50:18.350Z,9.00
2018-07-20T15:55:15.618Z,8.33
2018-07-20T15:57:44.209Z,9.30
2018-07-20T16:00:13.046Z,8.40
2018-07-20T16:02:41.683Z,8.13
2018-07-20T16:05:10.400Z,8.80
2018-07-20T16:07:39.009Z,8.90
2018-07-20T16:10:07.664Z,8.23
2018-07-20T16:12:36.207Z,7.90
2018-07-20T16:15:05.336Z,8.23
2018-07-20T16:17:34.176Z,8.03
2018-07-20T16:20:02.864Z,8.30
2018-07-20T16:22:31.563Z,7.60
2018-07-20T16:25:00.318Z,7.90
2018-07-20T16:27:29.025Z,8.50
2018-07-20T16:29:58.434Z,8.30
2018-07-20T16:32:27.066Z,7.73
2018-07-20T16:34:55.680Z,8.83
2018-07-20T16:37:24.303Z,7.87
2018-07-20T16:39:52.932Z,8.10
2018-07-20T16:42:22.392Z,7.27
2018-07-20T16:44:51.304Z,7.67
2018-07-20T16:47:20.266Z,8.70
2018-07-20T16:49:48.890Z,7.97
2018-07-20T16:52:17.485Z,7.53
2018-07-20T16:54:46.096Z,10.27
2018-07-20T16:57:15.702Z,8.27
2018-07-20T16:59:44.271Z,8.93
2018-07-20T17:02:12.927Z,8.87
2018-07-20T17:04:41.532Z,8.20
2018-07-20T17:07:10.211Z,8.17
2018-07-20T17:09:38.937Z,9.40
2018-07-20T17:12:07.886Z,8.90
2018-07-20T17:14:36.542Z,8.47
2018-07-20T17:17:05.184Z,9.17
2018-07-20T17:19:33.781Z,9.20
2018-07-20T17:22:02.405Z,10.10
2018-07-20T17:24:31.088Z,10.47
2018-07-20T17:26:59.764Z,9.37
2018-07-20T17:29:28.409Z,9.47
2018-07-20T17:31:57.048Z,9.97
2018-07-20T17:34:25.706Z,9.53
2018-07-20T17:36:54.356Z,10.57
2018-07-20T17:39:23.951Z,9.93
2018-07-20T17:41:52.570Z,10.73
2018-07-20T17:44:21.197Z,11.00
2018-07-20T17:46:49.773Z,12.77
2018-07-20T17:49:18.500Z,11.10
2018-07-20T17:51:47.124Z,12.33
2018-07-20T17:54:15.831Z,10.37
2018-07-20T17:56:44.432Z,10.67
2018-07-20T17:59:13.060Z,10.77
2018-07-20T18:01:41.853Z,10.67
2018-07-20T18:04:10.529Z,11.40
2018-07-20T18:06:39.227Z,11.30
2018-07-20T18:09:09.080Z,12.07
2018-07-20T18:11:37.763Z,11.93
2018-07-20T18:14:06.512Z,11.33
2018-07-20T18:16:35.206Z,10.63
2018-07-20T18:19:03.840Z,10.10
2018-07-20T18:21:32.485Z,11.00
2018-07-20T18:24:01.157Z,11.30
2018-07-20T18:26:29.768Z,13.63
2018-07-20T18:28:58.368Z,12.37
2018-07-20T18:31:27.037Z,12.97
2018-07-20T18:33:55.755Z,13.30
2018-07-20T18:36:24.404Z,13.73
2018-07-20T18:38:53.065Z,14.67
2018-07-20T18:41:22.657Z,13.70
2018-07-20T18:43:51.341Z,15.00
2018-07-20T18:46:20.052Z,14.50
2018-07-20T18:48:48.639Z,13.20
2018-07-20T18:51:17.260Z,13.57
2018-07-20T18:53:45.885Z,14.33
2018-07-20T18:56:14.536Z,15.80
2018-07-20T18:58:43.120Z,12.80
2018-07-20T19:01:11.722Z,13.63
2018-07-20T19:03:40.462Z,14.17
2018-07-20T19:06:09.088Z,13.40
2018-07-20T19:08:37.736Z,13.47
2018-07-20T19:11:06.587Z,13.47
2018-07-20T19:13:35.211Z,13.57
2018-07-20T19:16:03.821Z,14.03
2018-07-20T19:18:32.488Z,13.27
2018-07-20T19:21:01.169Z,14.47
2018-07-20T19:23:30.518Z,13.77
2018-07-20T19:25:59.377Z,17.30
2018-07-20T19:28:28.221Z,17.43
2018-07-20T19:30:56.836Z,14.90
2018-07-20T19:33:25.464Z,14.70
2018-07-20T19:35:54.102Z,17.23
2018-07-20T19:38:22.850Z,15.73
2018-07-20T19:40:52.002Z,14.17
2018-07-20T19:43:24.942Z,13.83
2018-07-20T19:45:57.160Z,13.80
2018-07-20T19:48:28.151Z,14.27
2018-07-20T19:50:59.908Z,14.80
2018-07-20T19:53:30.910Z,15.83
2018-07-20T19:56:01.920Z,14.60
2018-07-20T19:58:33.295Z,15.67
2018-07-20T20:01:04.976Z,15.77
2018-07-20T20:03:36.401Z,14.50
2018-07-20T20:06:08.211Z,13.97
2018-07-20T20:08:42.068Z,14.63
2018-07-20T20:11:13.856Z,14.80
2018-07-20T20:13:46.537Z,15.23
2018-07-20T20:16:17.674Z,15.23
2018-07-20T20:18:49.562Z,17.37
2018-07-20T20:21:21.635Z,16.50
2018-07-20T20:23:54.158Z,16.73
2018-07-20T20:26:26.970Z,16.70
2018-07-20T20:29:02.514Z,14.13
2018-07-20T20:31:34.275Z,13.57
2018-07-20T20:34:06.853Z,14.27
2018-07-20T20:36:43.837Z,14.27
2018-07-20T20:39:18.407Z,14.03
2018-07-20T20:41:52.068Z,14.77
2018-07-20T20:44:23.529Z,15.23
2018-07-20T20:47:01.209Z,19.90
2018-07-20T20:49:34.035Z,15.30
2018-07-20T20:52:03.600Z,14.60
2018-07-20T20:54:37.921Z,15.37
2018-07-20T20:57:14.566Z,17.13
2018-07-20T20:59:47.098Z,15.50
2018-07-20T21:02:17.935Z,15.27
2018-07-20T21:04:48.256Z,15.63
2018-07-20T21:07:16.977Z,15.37
2018-07-20T21:09:45.581Z,15.03
2018-07-20T21:12:14.317Z,15.60
2018-07-20T21:14:45.494Z,13.20
2018-07-20T21:17:14.133Z,13.83
2018-07-20T21:19:42.897Z,15.03
2018-07-20T21:22:11.580Z,14.30
2018-07-20T21:24:40.105Z,17.97
2018-07-20T21:27:08.756Z,14.13
2018-07-20T21:29:37.377Z,15.43
2018-07-20T21:32:06.049Z,18.73
2018-07-20T21:34:36.220Z,15.63
2018-07-20T21:37:04.877Z,15.93
2018-07-20T21:39:33.512Z,17.07
2018-07-20T21:42:02.167Z,16.00
2018-07-20T21:44:30.960Z,16.30
2018-07-20T21:46:59.632Z,19.13
2018-07-20T21:49:28.387Z,16.67
2018-07-20T21:51:57.015Z,22.87
2018-07-20T21:54:25.778Z,17.17
2018-07-20T21:56:54.378Z,15.13
2018-07-20T21:59:22.971Z,16.53
2018-07-20T22:01:51.613Z,15.83
2018-07-20T22:04:20.240Z,15.63
2018-07-20T22:06:48.907Z,16.00
2018-07-20T22:09:18.247Z,15.90
2018-07-20T22:11:46.823Z,17.30
2018-07-20T22:14:15.432Z,18.23
2018-07-20T22:16:45.020Z,21.80
2018-07-20T22:19:13.673Z,20.20
2018-07-20T22:21:42.327Z,21.37
2018-07-20T22:24:11.051Z,20.27
2018-07-20T22:26:39.782Z,22.77
2018-07-20T22:29:08.521Z,19.97
2018-07-20T22:31:37.712Z,24.77
2018-07-20T22:34:06.407Z,23.77
2018-07-20T22:36:35.007Z,23.97
2018-07-20T22:39:04.104Z,21.27
2018-07-20T22:41:32.773Z,21.90
2018-07-20T22:44:01.416Z,18.87
2018-07-20T22:46:29.599Z,23.30
2018-07-20T22:48:58.251Z,21.13
2018-07-20T22:51:28.060Z,20.77
2018-07-20T22:53:56.841Z,21.00
2018-07-20T22:56:25.480Z,22.23
2018-07-20T22:58:54.217Z,20.27
2018-07-20T23:01:22.882Z,18.80
2018-07-20T23:03:52.953Z,20.07
2018-07-20T23:06:21.671Z,20.27
2018-07-20T23:08:50.300Z,17.83
2018-07-20T23:11:18.991Z,16.60
2018-07-20T23:13:47.729Z,16.23
2018-07-20T23:16:16.335Z,18.17
2018-07-20T23:18:45.241Z,17.53
2018-07-20T23:21:13.924Z,17.53
2018-07-20T23:23:42.521Z,18.40
2018-07-20T23:26:11.288Z,17.23
2018-07-20T23:28:39.920Z,15.43
2018-07-20T23:31:08.832Z,17.73
2018-07-20T23:33:37.449Z,21.97
2018-07-20T23:36:06.085Z,18.20
2018-07-20T23:38:34.720Z,21.57
2018-07-20T23:41:03.346Z,20.50
2018-07-20T23:43:31.994Z,24.00
2018-07-20T23:46:00.617Z,17.80
2018-07-20T23:48:29.252Z,21.87
2018-07-20T23:50:58.009Z,19.37
2018-07-20T23:53:26.692Z,18.73
2018-07-20T23:55:54.947Z,17.37
2018-07-20T23:58:24.957Z,20.60
